sensor_id;sensor_type;location;lat;lon;timestamp;pressure;altitude;pressure_sealevel;temperature;humidity
61113;BME280;47184;57.998;56.184;2023-08-17T00:00:44;100409.75;;;22.52;61.31
61113;BME280;47184;57.998;56.184;2023-08-17T00:03:11;100388.66;;;22.37;61.41
61113;BME280;47184;57.998;56.184;2023-08-17T00:05:37;100389.13;;;22.34;61.47
61113;BME280;47184;57.998;56.184;2023-08-17T00:08:03;100399.19;;;22.39;61.76
61113;BME280;47184;57.998;56.184;2023-08-17T00:10:30;100404.22;;;22.35;61.93
61113;BME280;47184;57.998;56.184;2023-08-17T00:12:56;100384.38;;;22.18;61.79
61113;BME280;47184;57.998;56.184;2023-08-17T00:15:22;100409.66;;;22.29;61.99
61113;BME280;47184;57.998;56.184;2023-08-17T00:17:48;100409.91;;;22.27;62.28
61113;BME280;47184;57.998;56.184;2023-08-17T00:20:14;100411.41;;;22.23;62.36
61113;BME280;47184;57.998;56.184;2023-08-17T00:22:40;100413.16;;;22.17;62.75
61113;BME280;47184;57.998;56.184;2023-08-17T00:25:07;100399.81;;;22.04;62.52
61113;BME280;47184;57.998;56.184;2023-08-17T00:27:33;100420.03;;;22.13;62.68
61113;BME280;47184;57.998;56.184;2023-08-17T00:30:02;100415.75;;;22.06;62.90
61113;BME280;47184;57.998;56.184;2023-08-17T00:32:30;100426.06;;;22.09;62.80
61113;BME280;47184;57.998;56.184;2023-08-17T00:34:56;100390.53;;;21.88;62.97
61113;BME280;47184;57.998;56.184;2023-08-17T00:37:22;100424.25;;;22.02;63.08
61113;BME280;47184;57.998;56.184;2023-08-17T00:39:48;100425.75;;;21.98;63.32
61113;BME280;47184;57.998;56.184;2023-08-17T00:42:14;100428.69;;;21.97;63.33
61113;BME280;47184;57.998;56.184;2023-08-17T00:44:41;100420.81;;;21.95;63.68
61113;BME280;47184;57.998;56.184;2023-08-17T00:47:07;100391.28;;;21.77;63.67
61113;BME280;47184;57.998;56.184;2023-08-17T00:49:34;100427.19;;;22.01;63.83
61113;BME280;47184;57.998;56.184;2023-08-17T00:52:01;100412.03;;;21.88;63.80
61113;BME280;47184;57.998;56.184;2023-08-17T00:54:29;100428.88;;;21.95;63.97
61113;BME280;47184;57.998;56.184;2023-08-17T00:56:55;100407.41;;;21.77;64.17
61113;BME280;47184;57.998;56.184;2023-08-17T00:59:23;100425.63;;;21.93;63.97
61113;BME280;47184;57.998;56.184;2023-08-17T01:01:49;100389.47;;;21.71;63.79
61113;BME280;47184;57.998;56.184;2023-08-17T01:04:15;100430.38;;;21.91;63.69
61113;BME280;47184;57.998;56.184;2023-08-17T01:06:43;100434.50;;;21.94;63.71
61113;BME280;47184;57.998;56.184;2023-08-17T01:09:09;100431.81;;;21.94;63.68
61113;BME280;47184;57.998;56.184;2023-08-17T01:11:56;100433.69;;;21.93;63.68
61113;BME280;47184;57.998;56.184;2023-08-17T01:15:08;100428.97;;;21.89;63.66
61113;BME280;47184;57.998;56.184;2023-08-17T01:17:54;100432.63;;;21.94;63.77
61113;BME280;47184;57.998;56.184;2023-08-17T01:20:23;100436.38;;;21.93;63.68
61113;BME280;47184;57.998;56.184;2023-08-17T01:22:50;100441.75;;;21.93;63.98
61113;BME280;47184;57.998;56.184;2023-08-17T01:25:17;100450.88;;;21.92;64.04
61113;BME280;47184;57.998;56.184;2023-08-17T01:27:45;100442.19;;;21.90;63.96
61113;BME280;47184;57.998;56.184;2023-08-17T01:30:15;100422.84;;;21.82;63.89
61113;BME280;47184;57.998;56.184;2023-08-17T01:32:58;100450.56;;;22.00;64.08
61113;BME280;47184;57.998;56.184;2023-08-17T01:38:18;100453.53;;;22.11;63.60
61113;BME280;47184;57.998;56.184;2023-08-17T01:40:48;100461.19;;;22.14;63.51
61113;BME280;47184;57.998;56.184;2023-08-17T01:43:16;100444.66;;;22.10;63.53
61113;BME280;47184;57.998;56.184;2023-08-17T01:45:44;100453.13;;;22.14;63.92
61113;BME280;47184;57.998;56.184;2023-08-17T01:48:10;100464.84;;;22.19;63.79
61113;BME280;47184;57.998;56.184;2023-08-17T01:50:36;100469.91;;;22.28;63.66
61113;BME280;47184;57.998;56.184;2023-08-17T01:53:03;100427.28;;;22.13;63.51
61113;BME280;47184;57.998;56.184;2023-08-17T01:55:29;100450.88;;;22.29;63.86
61113;BME280;47184;57.998;56.184;2023-08-17T01:57:55;100451.81;;;22.35;63.42
61113;BME280;47184;57.998;56.184;2023-08-17T02:00:21;100451.94;;;22.40;63.27
61113;BME280;47184;57.998;56.184;2023-08-17T02:02:47;100468.22;;;22.45;63.49
61113;BME280;47184;57.998;56.184;2023-08-17T02:05:13;100468.75;;;22.54;63.67
61113;BME280;47184;57.998;56.184;2023-08-17T02:07:39;100477.34;;;22.62;63.31
61113;BME280;47184;57.998;56.184;2023-08-17T02:10:06;100480.16;;;22.67;63.50
61113;BME280;47184;57.998;56.184;2023-08-17T02:12:32;100483.34;;;22.76;63.47
61113;BME280;47184;57.998;56.184;2023-08-17T02:14:58;100460.38;;;22.73;63.00
61113;BME280;47184;57.998;56.184;2023-08-17T02:17:24;100496.69;;;23.01;62.55
61113;BME280;47184;57.998;56.184;2023-08-17T02:19:50;100497.41;;;23.08;62.19
61113;BME280;47184;57.998;56.184;2023-08-17T02:22:16;100477.81;;;23.01;62.29
61113;BME280;47184;57.998;56.184;2023-08-17T02:24:42;100492.13;;;23.13;61.78
61113;BME280;47184;57.998;56.184;2023-08-17T02:27:09;100459.56;;;23.03;61.63
61113;BME280;47184;57.998;56.184;2023-08-17T02:29:36;100491.22;;;23.19;61.65
61113;BME280;47184;57.998;56.184;2023-08-17T02:32:02;100494.28;;;23.23;61.62
61113;BME280;47184;57.998;56.184;2023-08-17T02:34:28;100498.28;;;23.32;61.03
61113;BME280;47184;57.998;56.184;2023-08-17T02:36:54;100504.25;;;23.46;60.69
61113;BME280;47184;57.998;56.184;2023-08-17T02:39:20;100510.34;;;23.53;60.54
61113;BME280;47184;57.998;56.184;2023-08-17T02:41:46;100504.63;;;23.61;60.50
61113;BME280;47184;57.998;56.184;2023-08-17T02:44:16;100497.81;;;23.59;60.10
61113;BME280;47184;57.998;56.184;2023-08-17T02:46:42;100502.06;;;23.78;59.89
61113;BME280;47184;57.998;56.184;2023-08-17T02:49:08;100490.94;;;23.75;59.47
61113;BME280;47184;57.998;56.184;2023-08-17T02:51:34;100494.91;;;23.84;59.73
61113;BME280;47184;57.998;56.184;2023-08-17T02:54:00;100500.19;;;23.90;59.07
61113;BME280;47184;57.998;56.184;2023-08-17T02:56:26;100494.41;;;23.98;58.90
61113;BME280;47184;57.998;56.184;2023-08-17T02:58:52;100501.22;;;24.13;58.49
61113;BME280;47184;57.998;56.184;2023-08-17T03:01:18;100488.28;;;24.15;58.53
61113;BME280;47184;57.998;56.184;2023-08-17T03:03:45;100471.84;;;24.16;58.07
61113;BME280;47184;57.998;56.184;2023-08-17T03:06:11;100512.41;;;24.45;57.80
61113;BME280;47184;57.998;56.184;2023-08-17T03:08:39;100508.75;;;24.51;57.79
61113;BME280;47184;57.998;56.184;2023-08-17T03:11:09;100496.16;;;24.57;57.39
61113;BME280;47184;57.998;56.184;2023-08-17T03:13:36;100498.25;;;24.66;56.96
61113;BME280;47184;57.998;56.184;2023-08-17T03:16:02;100506.31;;;24.78;56.67
61113;BME280;47184;57.998;56.184;2023-08-17T03:18:29;100477.47;;;24.67;56.52
61113;BME280;47184;57.998;56.184;2023-08-17T03:20:55;100521.22;;;24.98;56.28
61113;BME280;47184;57.998;56.184;2023-08-17T03:23:21;100520.28;;;25.04;56.44
61113;BME280;47184;57.998;56.184;2023-08-17T03:25:54;100518.63;;;25.03;56.43
61113;BME280;47184;57.998;56.184;2023-08-17T03:28:20;100529.63;;;25.13;56.17
61113;BME280;47184;57.998;56.184;2023-08-17T03:30:46;100512.28;;;25.09;56.21
61113;BME280;47184;57.998;56.184;2023-08-17T03:33:13;100509.44;;;25.15;56.10
61113;BME280;47184;57.998;56.184;2023-08-17T03:35:39;100522.94;;;25.32;55.80
61113;BME280;47184;57.998;56.184;2023-08-17T03:38:07;100523.16;;;25.31;55.90
61113;BME280;47184;57.998;56.184;2023-08-17T03:40:33;100536.06;;;25.40;55.53
61113;BME280;47184;57.998;56.184;2023-08-17T03:43:00;100526.06;;;25.41;55.27
61113;BME280;47184;57.998;56.184;2023-08-17T03:45:29;100534.09;;;25.53;55.26
61113;BME280;47184;57.998;56.184;2023-08-17T03:47:56;100531.72;;;25.56;55.12
61113;BME280;47184;57.998;56.184;2023-08-17T03:50:22;100537.34;;;25.72;54.59
61113;BME280;47184;57.998;56.184;2023-08-17T03:52:48;100538.84;;;25.79;54.14
61113;BME280;47184;57.998;56.184;2023-08-17T03:55:14;100546.31;;;25.89;53.77
61113;BME280;47184;57.998;56.184;2023-08-17T03:57:43;100547.78;;;25.97;53.61
61113;BME280;47184;57.998;56.184;2023-08-17T04:00:09;100540.47;;;25.97;53.27
61113;BME280;47184;57.998;56.184;2023-08-17T04:02:42;100527.09;;;25.90;53.50
61113;BME280;47184;57.998;56.184;2023-08-17T04:05:15;100540.97;;;26.16;53.07
61113;BME280;47184;57.998;56.184;2023-08-17T04:07:41;100524.56;;;26.01;52.95
61113;BME280;47184;57.998;56.184;2023-08-17T04:10:08;100508.75;;;25.92;52.57
61113;BME280;47184;57.998;56.184;2023-08-17T04:12:38;100544.44;;;26.11;52.37
61113;BME280;47184;57.998;56.184;2023-08-17T04:15:06;100552.06;;;26.14;52.37
61113;BME280;47184;57.998;56.184;2023-08-17T04:17:32;100549.25;;;26.26;52.47
61113;BME280;47184;57.998;56.184;2023-08-17T04:19:59;100522.84;;;26.16;51.65
61113;BME280;47184;57.998;56.184;2023-08-17T04:22:25;100514.84;;;26.27;51.57
61113;BME280;47184;57.998;56.184;2023-08-17T04:24:52;100543.78;;;26.65;51.12
61113;BME280;47184;57.998;56.184;2023-08-17T04:27:18;100550.00;;;26.87;50.55
61113;BME280;47184;57.998;56.184;2023-08-17T04:29:46;100560.22;;;27.07;50.64
61113;BME280;47184;57.998;56.184;2023-08-17T04:32:15;100562.81;;;27.19;50.20
61113;BME280;47184;57.998;56.184;2023-08-17T04:34:44;100562.06;;;27.29;49.84
61113;BME280;47184;57.998;56.184;2023-08-17T04:37:13;100538.47;;;27.29;49.56
61113;BME280;47184;57.998;56.184;2023-08-17T04:39:39;100557.31;;;27.46;48.95
61113;BME280;47184;57.998;56.184;2023-08-17T04:42:07;100570.03;;;27.73;48.85
61113;BME280;47184;57.998;56.184;2023-08-17T04:44:34;100575.81;;;27.81;48.71
61113;BME280;47184;57.998;56.184;2023-08-17T04:47:01;100568.81;;;27.90;47.86
61113;BME280;47184;57.998;56.184;2023-08-17T04:49:28;100564.50;;;28.00;47.54
61113;BME280;47184;57.998;56.184;2023-08-17T04:51:57;100565.41;;;28.15;47.11
61113;BME280;47184;57.998;56.184;2023-08-17T04:54:24;100528.56;;;27.77;45.73
61113;BME280;47184;57.998;56.184;2023-08-17T04:56:50;100561.44;;;27.86;46.16
61113;BME280;47184;57.998;56.184;2023-08-17T04:59:16;100566.28;;;27.79;45.52
61113;BME280;47184;57.998;56.184;2023-08-17T05:01:45;100544.59;;;27.84;45.47
61113;BME280;47184;57.998;56.184;2023-08-17T05:04:11;100559.69;;;28.12;45.13
61113;BME280;47184;57.998;56.184;2023-08-17T05:06:37;100546.41;;;28.10;44.75
61113;BME280;47184;57.998;56.184;2023-08-17T05:09:04;100548.03;;;28.11;44.53
61113;BME280;47184;57.998;56.184;2023-08-17T05:11:31;100562.47;;;28.17;44.54
61113;BME280;47184;57.998;56.184;2023-08-17T05:13:57;100563.00;;;28.19;44.13
61113;BME280;47184;57.998;56.184;2023-08-17T05:16:24;100568.22;;;28.31;44.04
61113;BME280;47184;57.998;56.184;2023-08-17T05:18:51;100552.44;;;28.28;43.70
61113;BME280;47184;57.998;56.184;2023-08-17T05:21:17;100519.72;;;27.97;43.99
61113;BME280;47184;57.998;56.184;2023-08-17T05:23:43;100542.34;;;28.13;43.73
61113;BME280;47184;57.998;56.184;2023-08-17T05:26:09;100557.97;;;28.38;43.40
61113;BME280;47184;57.998;56.184;2023-08-17T05:28:35;100536.72;;;28.35;43.05
61113;BME280;47184;57.998;56.184;2023-08-17T05:31:06;100542.28;;;28.60;42.96
61113;BME280;47184;57.998;56.184;2023-08-17T05:33:35;100562.16;;;28.81;42.76
61113;BME280;47184;57.998;56.184;2023-08-17T05:36:01;100542.13;;;29.13;42.39
61113;BME280;47184;57.998;56.184;2023-08-17T05:38:30;100546.47;;;29.55;41.72
61113;BME280;47184;57.998;56.184;2023-08-17T05:40:57;100547.81;;;29.98;40.71
61113;BME280;47184;57.998;56.184;2023-08-17T05:43:24;100535.22;;;30.28;40.18
61113;BME280;47184;57.998;56.184;2023-08-17T05:45:50;100521.44;;;30.58;39.44
61113;BME280;47184;57.998;56.184;2023-08-17T05:48:20;100551.28;;;31.28;38.37
61113;BME280;47184;57.998;56.184;2023-08-17T05:50:47;100553.38;;;32.24;37.40
61113;BME280;47184;57.998;56.184;2023-08-17T05:53:13;100529.00;;;33.08;35.95
61113;BME280;47184;57.998;56.184;2023-08-17T05:55:39;100545.22;;;33.84;34.42
61113;BME280;47184;57.998;56.184;2023-08-17T05:58:05;100553.97;;;34.41;33.35
61113;BME280;47184;57.998;56.184;2023-08-17T06:00:31;100548.63;;;34.99;32.84
61113;BME280;47184;57.998;56.184;2023-08-17T06:02:57;100523.44;;;35.82;31.47
61113;BME280;47184;57.998;56.184;2023-08-17T06:05:30;100542.16;;;37.03;30.28
61113;BME280;47184;57.998;56.184;2023-08-17T06:07:56;100545.16;;;37.54;29.14
61113;BME280;47184;57.998;56.184;2023-08-17T06:10:25;100541.97;;;36.91;28.93
61113;BME280;47184;57.998;56.184;2023-08-17T06:12:53;100546.66;;;36.64;28.95
61113;BME280;47184;57.998;56.184;2023-08-17T06:15:20;100544.84;;;37.38;28.62
61113;BME280;47184;57.998;56.184;2023-08-17T06:17:46;100546.28;;;38.29;27.34
61113;BME280;47184;57.998;56.184;2023-08-17T06:20:12;100539.19;;;38.79;26.56
61113;BME280;47184;57.998;56.184;2023-08-17T06:22:39;100556.50;;;39.21;25.95
61113;BME280;47184;57.998;56.184;2023-08-17T06:25:05;100553.16;;;39.49;25.76
61113;BME280;47184;57.998;56.184;2023-08-17T06:27:32;100554.16;;;40.39;24.99
61113;BME280;47184;57.998;56.184;2023-08-17T06:29:59;100550.38;;;41.55;23.83
61113;BME280;47184;57.998;56.184;2023-08-17T06:32:25;100545.41;;;42.63;22.46
61113;BME280;47184;57.998;56.184;2023-08-17T06:34:51;100548.69;;;43.46;21.90
61113;BME280;47184;57.998;56.184;2023-08-17T06:37:19;100554.84;;;43.59;21.62
61113;BME280;47184;57.998;56.184;2023-08-17T06:39:45;100535.44;;;43.63;20.96
61113;BME280;47184;57.998;56.184;2023-08-17T06:42:11;100551.03;;;43.67;20.63
61113;BME280;47184;57.998;56.184;2023-08-17T06:44:37;100547.81;;;43.65;20.83
61113;BME280;47184;57.998;56.184;2023-08-17T06:47:04;100549.78;;;43.88;20.27
61113;BME280;47184;57.998;56.184;2023-08-17T06:49:31;100535.31;;;44.28;19.73
61113;BME280;47184;57.998;56.184;2023-08-17T06:51:57;100535.22;;;44.51;19.99
61113;BME280;47184;57.998;56.184;2023-08-17T06:54:23;100536.22;;;45.03;19.49
61113;BME280;47184;57.998;56.184;2023-08-17T06:56:49;100525.81;;;45.34;18.92
61113;BME280;47184;57.998;56.184;2023-08-17T06:59:15;100524.78;;;45.49;18.47
61113;BME280;47184;57.998;56.184;2023-08-17T07:01:41;100540.28;;;45.91;18.54
61113;BME280;47184;57.998;56.184;2023-08-17T07:04:08;100539.91;;;46.62;17.64
61113;BME280;47184;57.998;56.184;2023-08-17T07:06:34;100542.00;;;46.90;17.34
61113;BME280;47184;57.998;56.184;2023-08-17T07:09:00;100528.81;;;46.90;17.28
61113;BME280;47184;57.998;56.184;2023-08-17T07:11:27;100526.56;;;47.50;16.78
61113;BME280;47184;57.998;56.184;2023-08-17T07:13:53;100538.81;;;48.52;15.79
61113;BME280;47184;57.998;56.184;2023-08-17T07:16:19;100542.94;;;47.65;16.17
61113;BME280;47184;57.998;56.184;2023-08-17T07:18:46;100532.16;;;47.68;16.47
61113;BME280;47184;57.998;56.184;2023-08-17T07:21:12;100534.06;;;48.35;16.43
61113;BME280;47184;57.998;56.184;2023-08-17T07:23:44;100506.31;;;46.48;17.25
61113;BME280;47184;57.998;56.184;2023-08-17T07:26:10;100521.00;;;46.27;17.37
61113;BME280;47184;57.998;56.184;2023-08-17T07:28:37;100529.69;;;47.23;16.54
61113;BME280;47184;57.998;56.184;2023-08-17T07:31:03;100536.53;;;48.04;16.40
61113;BME280;47184;57.998;56.184;2023-08-17T07:33:29;100505.47;;;48.79;15.84
61113;BME280;47184;57.998;56.184;2023-08-17T07:35:55;100532.59;;;49.97;15.08
61113;BME280;47184;57.998;56.184;2023-08-17T07:38:24;100537.72;;;50.44;14.51
61113;BME280;47184;57.998;56.184;2023-08-17T07:40:50;100537.50;;;50.62;14.07
61113;BME280;47184;57.998;56.184;2023-08-17T07:43:16;100532.22;;;50.94;14.24
61113;BME280;47184;57.998;56.184;2023-08-17T07:45:42;100534.53;;;51.53;13.95
61113;BME280;47184;57.998;56.184;2023-08-17T07:48:08;100539.81;;;52.18;13.44
61113;BME280;47184;57.998;56.184;2023-08-17T07:50:34;100515.91;;;52.27;13.32
61113;BME280;47184;57.998;56.184;2023-08-17T07:53:00;100517.19;;;52.78;12.97
61113;BME280;47184;57.998;56.184;2023-08-17T07:55:26;100531.09;;;53.21;11.94
61113;BME280;47184;57.998;56.184;2023-08-17T07:57:52;100524.13;;;53.10;12.09
61113;BME280;47184;57.998;56.184;2023-08-17T08:00:18;100511.63;;;52.74;12.37
61113;BME280;47184;57.998;56.184;2023-08-17T08:02:47;100525.84;;;51.68;12.83
61113;BME280;47184;57.998;56.184;2023-08-17T08:05:13;100531.47;;;51.68;13.20
61113;BME280;47184;57.998;56.184;2023-08-17T08:07:39;100518.19;;;52.52;12.70
61113;BME280;47184;57.998;56.184;2023-08-17T08:10:06;100517.03;;;52.85;11.68
61113;BME280;47184;57.998;56.184;2023-08-17T08:12:33;100525.63;;;52.62;12.33
61113;BME280;47184;57.998;56.184;2023-08-17T08:14:59;100528.34;;;52.06;12.56
61113;BME280;47184;57.998;56.184;2023-08-17T08:17:26;100514.16;;;51.46;12.57
61113;BME280;47184;57.998;56.184;2023-08-17T08:19:52;100508.63;;;51.39;12.77
61113;BME280;47184;57.998;56.184;2023-08-17T08:22:19;100526.56;;;52.15;12.05
61113;BME280;47184;57.998;56.184;2023-08-17T08:24:45;100520.72;;;52.06;12.10
61113;BME280;47184;57.998;56.184;2023-08-17T08:27:12;100499.97;;;52.16;12.06
61113;BME280;47184;57.998;56.184;2023-08-17T08:29:39;100519.63;;;52.00;12.25
61113;BME280;47184;57.998;56.184;2023-08-17T08:32:05;100517.81;;;52.30;11.74
61113;BME280;47184;57.998;56.184;2023-08-17T08:34:31;100505.72;;;52.69;11.79
61113;BME280;47184;57.998;56.184;2023-08-17T08:36:57;100519.69;;;51.96;12.36
61113;BME280;47184;57.998;56.184;2023-08-17T08:39:26;100522.31;;;51.84;12.23
61113;BME280;47184;57.998;56.184;2023-08-17T08:41:53;100526.47;;;51.56;12.47
61113;BME280;47184;57.998;56.184;2023-08-17T08:44:19;100502.09;;;49.99;12.99
61113;BME280;47184;57.998;56.184;2023-08-17T08:46:45;100517.00;;;50.30;12.90
61113;BME280;47184;57.998;56.184;2023-08-17T08:49:12;100504.09;;;50.94;13.04
61113;BME280;47184;57.998;56.184;2023-08-17T08:51:42;100509.38;;;51.43;12.47
61113;BME280;47184;57.998;56.184;2023-08-17T08:54:16;100516.41;;;51.55;12.30
61113;BME280;47184;57.998;56.184;2023-08-17T08:56:44;100510.44;;;52.16;12.30
61113;BME280;47184;57.998;56.184;2023-08-17T08:59:12;100504.56;;;52.66;12.33
61113;BME280;47184;57.998;56.184;2023-08-17T09:01:38;100527.56;;;53.17;11.55
61113;BME280;47184;57.998;56.184;2023-08-17T09:04:05;100517.09;;;51.62;12.39
61113;BME280;47184;57.998;56.184;2023-08-17T09:06:32;100519.44;;;51.17;12.81
61113;BME280;47184;57.998;56.184;2023-08-17T09:09:01;100501.91;;;51.33;12.02
61113;BME280;47184;57.998;56.184;2023-08-17T09:11:28;100498.66;;;52.01;12.05
61113;BME280;47184;57.998;56.184;2023-08-17T09:13:56;100507.25;;;52.54;12.02
61113;BME280;47184;57.998;56.184;2023-08-17T09:16:23;100515.06;;;52.46;11.85
61113;BME280;47184;57.998;56.184;2023-08-17T09:18:48;100506.13;;;52.31;12.06
61113;BME280;47184;57.998;56.184;2023-08-17T09:21:23;100505.75;;;52.29;12.16
61113;BME280;47184;57.998;56.184;2023-08-17T09:23:54;100506.63;;;52.26;11.70
61113;BME280;47184;57.998;56.184;2023-08-17T09:26:21;100476.63;;;52.16;12.03
61113;BME280;47184;57.998;56.184;2023-08-17T09:28:51;100509.13;;;53.13;11.54
61113;BME280;47184;57.998;56.184;2023-08-17T09:31:21;100506.44;;;53.87;11.57
61113;BME280;47184;57.998;56.184;2023-08-17T09:33:51;100496.19;;;53.77;10.90
61113;BME280;47184;57.998;56.184;2023-08-17T09:36:21;100504.03;;;54.15;10.81
61113;BME280;47184;57.998;56.184;2023-08-17T09:38:48;100497.56;;;54.14;10.97
61113;BME280;47184;57.998;56.184;2023-08-17T09:41:18;100505.66;;;53.54;10.95
61113;BME280;47184;57.998;56.184;2023-08-17T09:43:46;100499.06;;;53.12;11.05
61113;BME280;47184;57.998;56.184;2023-08-17T09:46:12;100496.34;;;53.08;11.47
61113;BME280;47184;57.998;56.184;2023-08-17T09:48:38;100481.16;;;53.02;11.46
61113;BME280;47184;57.998;56.184;2023-08-17T09:51:06;100495.28;;;53.35;10.65
61113;BME280;47184;57.998;56.184;2023-08-17T09:53:35;100486.47;;;53.00;10.92
61113;BME280;47184;57.998;56.184;2023-08-17T09:56:04;100488.44;;;53.49;10.87
61113;BME280;47184;57.998;56.184;2023-08-17T09:58:30;100493.25;;;53.81;11.04
61113;BME280;47184;57.998;56.184;2023-08-17T10:00:57;100454.75;;;54.29;10.12
61113;BME280;47184;57.998;56.184;2023-08-17T10:03:25;100459.25;;;55.15;9.84
61113;BME280;47184;57.998;56.184;2023-08-17T10:05:59;100478.22;;;55.97;9.58
61113;BME280;47184;57.998;56.184;2023-08-17T10:08:30;100480.22;;;56.41;8.92
61113;BME280;47184;57.998;56.184;2023-08-17T10:10:58;100477.28;;;56.84;9.04
61113;BME280;47184;57.998;56.184;2023-08-17T10:13:42;100481.91;;;57.28;9.22
61113;BME280;47184;57.998;56.184;2023-08-17T10:18:50;100454.75;;;55.40;9.40
61113;BME280;47184;57.998;56.184;2023-08-17T10:21:25;100475.34;;;55.06;9.41
61113;BME280;47184;57.998;56.184;2023-08-17T10:23:54;100462.88;;;55.29;9.32
61113;BME280;47184;57.998;56.184;2023-08-17T10:26:21;100455.13;;;54.69;9.45
61113;BME280;47184;57.998;56.184;2023-08-17T10:28:48;100476.56;;;55.30;9.88
61113;BME280;47184;57.998;56.184;2023-08-17T10:31:14;100469.34;;;55.86;9.32
61113;BME280;47184;57.998;56.184;2023-08-17T10:33:41;100468.53;;;55.85;9.17
61113;BME280;47184;57.998;56.184;2023-08-17T10:36:11;100468.94;;;55.97;8.67
61113;BME280;47184;57.998;56.184;2023-08-17T10:38:38;100460.44;;;56.19;8.63
61113;BME280;47184;57.998;56.184;2023-08-17T10:41:11;100470.06;;;56.30;9.18
61113;BME280;47184;57.998;56.184;2023-08-17T10:43:54;100469.06;;;56.46;8.98
61113;BME280;47184;57.998;56.184;2023-08-17T10:46:20;100468.22;;;56.36;8.46
61113;BME280;47184;57.998;56.184;2023-08-17T10:48:47;100471.47;;;56.26;8.76
61113;BME280;47184;57.998;56.184;2023-08-17T10:51:13;100474.84;;;55.90;8.87
61113;BME280;47184;57.998;56.184;2023-08-17T10:53:40;100469.22;;;55.07;9.57
61113;BME280;47184;57.998;56.184;2023-08-17T10:56:12;100455.78;;;54.99;9.38
61113;BME280;47184;57.998;56.184;2023-08-17T10:58:39;100445.47;;;55.05;9.61
61113;BME280;47184;57.998;56.184;2023-08-17T11:01:06;100466.84;;;55.06;9.71
61113;BME280;47184;57.998;56.184;2023-08-17T11:03:33;100461.00;;;54.87;8.52
61113;BME280;47184;57.998;56.184;2023-08-17T11:06:14;100447.16;;;55.02;9.54
61113;BME280;47184;57.998;56.184;2023-08-17T11:08:55;100454.63;;;55.22;8.93
61113;BME280;47184;57.998;56.184;2023-08-17T11:11:22;100458.28;;;55.79;8.39
61113;BME280;47184;57.998;56.184;2023-08-17T11:13:49;100441.66;;;55.33;8.57
61113;BME280;47184;57.998;56.184;2023-08-17T11:16:17;100453.06;;;54.82;9.26
61113;BME280;47184;57.998;56.184;2023-08-17T11:18:46;100448.38;;;55.14;8.49
61113;BME280;47184;57.998;56.184;2023-08-17T11:21:13;100447.03;;;55.06;8.66
61113;BME280;47184;57.998;56.184;2023-08-17T11:23:40;100441.91;;;55.26;8.34
61113;BME280;47184;57.998;56.184;2023-08-17T11:26:07;100445.69;;;55.45;8.25
61113;BME280;47184;57.998;56.184;2023-08-17T11:28:34;100437.41;;;55.51;7.79
61113;BME280;47184;57.998;56.184;2023-08-17T11:31:08;100445.13;;;55.72;8.55
61113;BME280;47184;57.998;56.184;2023-08-17T11:33:36;100441.59;;;55.81;8.55
61113;BME280;47184;57.998;56.184;2023-08-17T11:36:04;100429.06;;;55.91;8.40
61113;BME280;47184;57.998;56.184;2023-08-17T11:38:33;100447.63;;;56.45;8.44
61113;BME280;47184;57.998;56.184;2023-08-17T11:41:00;100435.19;;;56.11;8.28
61113;BME280;47184;57.998;56.184;2023-08-17T11:43:27;100431.78;;;55.38;8.27
61113;BME280;47184;57.998;56.184;2023-08-17T11:45:57;100424.84;;;55.52;7.92
61113;BME280;47184;57.998;56.184;2023-08-17T11:48:23;100427.28;;;55.84;7.79
61113;BME280;47184;57.998;56.184;2023-08-17T11:50:51;100429.13;;;55.78;8.26
61113;BME280;47184;57.998;56.184;2023-08-17T11:53:17;100427.66;;;55.96;8.15
61113;BME280;47184;57.998;56.184;2023-08-17T11:55:43;100430.50;;;55.52;7.98
61113;BME280;47184;57.998;56.184;2023-08-17T11:58:09;100426.53;;;55.14;8.83
61113;BME280;47184;57.998;56.184;2023-08-17T12:00:37;100431.88;;;55.12;8.46
61113;BME280;47184;57.998;56.184;2023-08-17T12:03:06;100425.66;;;54.79;8.50
61113;BME280;47184;57.998;56.184;2023-08-17T12:05:32;100423.75;;;54.38;8.99
61113;BME280;47184;57.998;56.184;2023-08-17T12:08:02;100422.56;;;54.10;9.46
61113;BME280;47184;57.998;56.184;2023-08-17T12:10:29;100423.22;;;54.43;9.19
61113;BME280;47184;57.998;56.184;2023-08-17T12:12:58;100423.19;;;54.81;8.95
61113;BME280;47184;57.998;56.184;2023-08-17T12:15:32;100422.94;;;55.01;8.88
61113;BME280;47184;57.998;56.184;2023-08-17T12:18:00;100420.03;;;54.92;8.40
61113;BME280;47184;57.998;56.184;2023-08-17T12:20:27;100426.47;;;54.41;9.32
61113;BME280;47184;57.998;56.184;2023-08-17T12:22:53;100430.88;;;54.42;9.32
61113;BME280;47184;57.998;56.184;2023-08-17T12:25:23;100399.44;;;54.66;8.48
61113;BME280;47184;57.998;56.184;2023-08-17T12:27:49;100431.78;;;54.90;8.89
61113;BME280;47184;57.998;56.184;2023-08-17T12:30:27;100405.09;;;54.15;9.28
61113;BME280;47184;57.998;56.184;2023-08-17T12:32:54;100424.88;;;54.15;9.21
61113;BME280;47184;57.998;56.184;2023-08-17T12:35:20;100411.53;;;54.15;8.73
61113;BME280;47184;57.998;56.184;2023-08-17T12:37:53;100423.31;;;54.39;9.33
61113;BME280;47184;57.998;56.184;2023-08-17T12:40:21;100418.50;;;53.69;8.90
61113;BME280;47184;57.998;56.184;2023-08-17T12:42:48;100417.91;;;53.16;9.12
61113;BME280;47184;57.998;56.184;2023-08-17T12:45:14;100429.16;;;53.49;8.96
61113;BME280;47184;57.998;56.184;2023-08-17T12:47:41;100438.25;;;53.40;9.66
61113;BME280;47184;57.998;56.184;2023-08-17T12:50:07;100421.91;;;53.47;9.12